sensor_id;sensor_type;location;lat;lon;timestamp;temperature;humidity
20428;DHT22;10373;49.768;18.302;2022-09-09T00:04:15;17.40;99.90
20428;DHT22;10373;49.768;18.302;2022-09-09T00:06:45;17.40;99.90
20428;DHT22;10373;49.768;18.302;2022-09-09T00:09:24;17.30;99.90
20428;DHT22;10373;49.768;18.302;2022-09-09T00:15:02;17.40;99.90
20428;DHT22;10373;49.768;18.302;2022-09-09T00:17:46;17.40;99.90
20428;DHT22;10373;49.768;18.302;2022-09-09T00:22:50;17.40;99.90
20428;DHT22;10373;49.768;18.302;2022-09-09T00:25:23;17.40;99.90
20428;DHT22;10373;49.768;18.302;2022-09-09T00:27:52;17.40;99.90
20428;DHT22;10373;49.768;18.302;2022-09-09T00:30:23;17.40;99.90
20428;DHT22;10373;49.768;18.302;2022-09-09T00:32:54;17.40;99.90
20428;DHT22;10373;49.768;18.302;2022-09-09T00:35:31;17.40;99.90
20428;DHT22;10373;49.768;18.302;2022-09-09T00:38:19;17.50;99.90
20428;DHT22;10373;49.768;18.302;2022-09-09T00:43:30;17.40;99.90
20428;DHT22;10373;49.768;18.302;2022-09-09T01:05:34;17.40;99.90
20428;DHT22;10373;49.768;18.302;2022-09-09T01:08:03;17.30;99.90
20428;DHT22;10373;49.768;18.302;2022-09-09T01:10:35;17.30;99.90
20428;DHT22;10373;49.768;18.302;2022-09-09T01:13:11;17.30;99.90
20428;DHT22;10373;49.768;18.302;2022-09-09T01:15:41;17.30;99.90
20428;DHT22;10373;49.768;18.302;2022-09-09T01:18:11;17.30;99.90
20428;DHT22;10373;49.768;18.302;2022-09-09T01:20:46;17.30;99.90
20428;DHT22;10373;49.768;18.302;2022-09-09T01:26:21;17.30;99.90
20428;DHT22;10373;49.768;18.302;2022-09-09T01:28:50;17.30;99.90
20428;DHT22;10373;49.768;18.302;2022-09-09T01:31:39;17.30;99.90
20428;DHT22;10373;49.768;18.302;2022-09-09T01:34:14;17.30;99.90
20428;DHT22;10373;49.768;18.302;2022-09-09T01:37:25;17.30;99.90
20428;DHT22;10373;49.768;18.302;2022-09-09T01:39:34;17.30;99.90
20428;DHT22;10373;49.768;18.302;2022-09-09T01:42:01;17.20;99.90
20428;DHT22;10373;49.768;18.302;2022-09-09T01:44:28;17.30;99.90
20428;DHT22;10373;49.768;18.302;2022-09-09T01:46:55;17.30;99.90
20428;DHT22;10373;49.768;18.302;2022-09-09T01:49:20;17.40;99.90
20428;DHT22;10373;49.768;18.302;2022-09-09T01:51:51;17.40;99.90
20428;DHT22;10373;49.768;18.302;2022-09-09T01:54:18;17.40;99.90
20428;DHT22;10373;49.768;18.302;2022-09-09T02:02:09;17.40;99.90
20428;DHT22;10373;49.768;18.302;2022-09-09T02:04:41;17.40;99.90
20428;DHT22;10373;49.768;18.302;2022-09-09T02:11:15;17.40;99.90
20428;DHT22;10373;49.768;18.302;2022-09-09T02:13:30;17.40;99.90
20428;DHT22;10373;49.768;18.302;2022-09-09T02:21:16;17.40;99.90
20428;DHT22;10373;49.768;18.302;2022-09-09T02:23:43;17.40;99.90
20428;DHT22;10373;49.768;18.302;2022-09-09T02:26:13;17.30;99.90
20428;DHT22;10373;49.768;18.302;2022-09-09T02:28:46;17.30;99.90
20428;DHT22;10373;49.768;18.302;2022-09-09T02:31:13;17.40;99.90
20428;DHT22;10373;49.768;18.302;2022-09-09T02:33:44;17.30;99.90
20428;DHT22;10373;49.768;18.302;2022-09-09T02:36:12;17.30;99.90
20428;DHT22;10373;49.768;18.302;2022-09-09T02:38:46;17.20;99.90
20428;DHT22;10373;49.768;18.302;2022-09-09T02:41:17;17.20;99.90
20428;DHT22;10373;49.768;18.302;2022-09-09T02:43:44;17.20;99.90
20428;DHT22;10373;49.768;18.302;2022-09-09T02:46:16;17.20;99.90
20428;DHT22;10373;49.768;18.302;2022-09-09T02:56:42;17.10;99.90
20428;DHT22;10373;49.768;18.302;2022-09-09T02:59:09;17.10;99.90
20428;DHT22;10373;49.768;18.302;2022-09-09T03:01:35;17.10;99.90
20428;DHT22;10373;49.768;18.302;2022-09-09T03:04:02;17.00;99.90
20428;DHT22;10373;49.768;18.302;2022-09-09T03:06:30;17.00;99.90
20428;DHT22;10373;49.768;18.302;2022-09-09T03:08:56;17.00;99.90
20428;DHT22;10373;49.768;18.302;2022-09-09T03:11:24;16.90;99.90
20428;DHT22;10373;49.768;18.302;2022-09-09T03:13:50;16.90;99.90
20428;DHT22;10373;49.768;18.302;2022-09-09T03:16:15;16.90;99.90
20428;DHT22;10373;49.768;18.302;2022-09-09T03:18:41;16.90;99.90
20428;DHT22;10373;49.768;18.302;2022-09-09T03:21:07;16.80;99.90
20428;DHT22;10373;49.768;18.302;2022-09-09T03:23:33;16.80;99.90
20428;DHT22;10373;49.768;18.302;2022-09-09T03:25:59;16.80;99.90
20428;DHT22;10373;49.768;18.302;2022-09-09T03:28:25;16.70;99.90
20428;DHT22;10373;49.768;18.302;2022-09-09T03:30:59;16.80;99.90
20428;DHT22;10373;49.768;18.302;2022-09-09T03:33:45;16.80;99.90
20428;DHT22;10373;49.768;18.302;2022-09-09T03:36:11;16.80;99.90
20428;DHT22;10373;49.768;18.302;2022-09-09T03:38:37;16.80;99.90
20428;DHT22;10373;49.768;18.302;2022-09-09T03:44:09;16.80;99.90
20428;DHT22;10373;49.768;18.302;2022-09-09T03:46:34;16.80;99.90
20428;DHT22;10373;49.768;18.302;2022-09-09T03:49:00;16.80;99.90
20428;DHT22;10373;49.768;18.302;2022-09-09T03:51:26;16.70;99.90
20428;DHT22;10373;49.768;18.302;2022-09-09T03:53:52;16.70;99.90
20428;DHT22;10373;49.768;18.302;2022-09-09T03:56:20;16.70;99.90
20428;DHT22;10373;49.768;18.302;2022-09-09T03:58:47;16.60;99.90
20428;DHT22;10373;49.768;18.302;2022-09-09T04:01:13;16.60;99.90
20428;DHT22;10373;49.768;18.302;2022-09-09T04:03:39;16.60;99.90
20428;DHT22;10373;49.768;18.302;2022-09-09T04:09:44;16.60;99.90
20428;DHT22;10373;49.768;18.302;2022-09-09T04:12:09;16.60;99.90
20428;DHT22;10373;49.768;18.302;2022-09-09T04:14:38;16.60;99.90
20428;DHT22;10373;49.768;18.302;2022-09-09T04:17:04;16.60;99.90
20428;DHT22;10373;49.768;18.302;2022-09-09T04:19:32;16.60;99.90
20428;DHT22;10373;49.768;18.302;2022-09-09T04:21:57;16.60;99.90
20428;DHT22;10373;49.768;18.302;2022-09-09T04:24:23;16.60;99.90
20428;DHT22;10373;49.768;18.302;2022-09-09T04:26:51;16.60;99.90
20428;DHT22;10373;49.768;18.302;2022-09-09T04:29:17;16.60;99.90
20428;DHT22;10373;49.768;18.302;2022-09-09T04:31:43;16.60;99.90
20428;DHT22;10373;49.768;18.302;2022-09-09T04:34:09;16.60;99.90
20428;DHT22;10373;49.768;18.302;2022-09-09T04:36:35;16.60;99.90
20428;DHT22;10373;49.768;18.302;2022-09-09T04:39:02;16.50;99.90
20428;DHT22;10373;49.768;18.302;2022-09-09T04:41:28;16.50;99.90
20428;DHT22;10373;49.768;18.302;2022-09-09T04:43:54;16.50;99.90
20428;DHT22;10373;49.768;18.302;2022-09-09T04:46:21;16.60;99.90
20428;DHT22;10373;49.768;18.302;2022-09-09T04:48:49;16.50;99.90
20428;DHT22;10373;49.768;18.302;2022-09-09T04:51:15;16.60;99.90
20428;DHT22;10373;49.768;18.302;2022-09-09T04:53:50;16.60;99.90
20428;DHT22;10373;49.768;18.302;2022-09-09T04:56:17;16.50;99.90
20428;DHT22;10373;49.768;18.302;2022-09-09T04:58:43;16.50;99.90
20428;DHT22;10373;49.768;18.302;2022-09-09T05:01:16;16.50;99.90
20428;DHT22;10373;49.768;18.302;2022-09-09T05:03:46;16.50;99.90
20428;DHT22;10373;49.768;18.302;2022-09-09T05:06:13;16.60;99.90
20428;DHT22;10373;49.768;18.302;2022-09-09T05:08:41;16.60;99.90
20428;DHT22;10373;49.768;18.302;2022-09-09T05:11:24;16.70;99.90
20428;DHT22;10373;49.768;18.302;2022-09-09T05:13:51;16.80;99.90
20428;DHT22;10373;49.768;18.302;2022-09-09T05:16:18;16.70;99.90
20428;DHT22;10373;49.768;18.302;2022-09-09T05:18:44;16.80;99.90
20428;DHT22;10373;49.768;18.302;2022-09-09T05:21:14;16.80;99.90
20428;DHT22;10373;49.768;18.302;2022-09-09T05:23:41;16.90;99.90
20428;DHT22;10373;49.768;18.302;2022-09-09T05:26:11;17.10;99.90
20428;DHT22;10373;49.768;18.302;2022-09-09T05:28:37;17.10;99.90
20428;DHT22;10373;49.768;18.302;2022-09-09T05:31:08;16.90;99.90
20428;DHT22;10373;49.768;18.302;2022-09-09T05:33:35;16.90;99.90
20428;DHT22;10373;49.768;18.302;2022-09-09T05:36:07;16.90;99.90
20428;DHT22;10373;49.768;18.302;2022-09-09T05:38:33;16.90;99.90
20428;DHT22;10373;49.768;18.302;2022-09-09T05:41:00;16.90;99.90
20428;DHT22;10373;49.768;18.302;2022-09-09T05:43:27;17.00;99.90
20428;DHT22;10373;49.768;18.302;2022-09-09T05:46:03;17.10;99.90
20428;DHT22;10373;49.768;18.302;2022-09-09T05:48:35;17.20;99.90
20428;DHT22;10373;49.768;18.302;2022-09-09T05:51:03;17.20;99.90
20428;DHT22;10373;49.768;18.302;2022-09-09T05:53:30;17.30;99.90
20428;DHT22;10373;49.768;18.302;2022-09-09T05:56:19;17.30;99.90
20428;DHT22;10373;49.768;18.302;2022-09-09T05:58:46;17.40;99.90
20428;DHT22;10373;49.768;18.302;2022-09-09T06:01:19;17.50;99.90
20428;DHT22;10373;49.768;18.302;2022-09-09T06:03:46;17.40;99.90
20428;DHT22;10373;49.768;18.302;2022-09-09T06:06:15;17.50;99.90
20428;DHT22;10373;49.768;18.302;2022-09-09T06:08:42;17.50;99.90
20428;DHT22;10373;49.768;18.302;2022-09-09T06:11:14;17.50;99.90
20428;DHT22;10373;49.768;18.302;2022-09-09T06:13:40;17.50;99.90
20428;DHT22;10373;49.768;18.302;2022-09-09T06:16:12;17.50;99.90
20428;DHT22;10373;49.768;18.302;2022-09-09T06:18:42;17.50;99.90
20428;DHT22;10373;49.768;18.302;2022-09-09T06:21:17;17.60;99.90
20428;DHT22;10373;49.768;18.302;2022-09-09T06:23:43;17.70;99.90
20428;DHT22;10373;49.768;18.302;2022-09-09T06:26:16;17.70;99.90
20428;DHT22;10373;49.768;18.302;2022-09-09T06:28:46;17.80;99.90
20428;DHT22;10373;49.768;18.302;2022-09-09T06:31:14;17.90;99.90
20428;DHT22;10373;49.768;18.302;2022-09-09T06:33:42;17.90;99.90
20428;DHT22;10373;49.768;18.302;2022-09-09T06:36:23;17.80;99.90
20428;DHT22;10373;49.768;18.302;2022-09-09T06:38:49;17.90;99.90
20428;DHT22;10373;49.768;18.302;2022-09-09T06:41:17;18.10;99.90
20428;DHT22;10373;49.768;18.302;2022-09-09T06:43:44;18.20;99.90
20428;DHT22;10373;49.768;18.302;2022-09-09T06:48:39;18.30;99.90
20428;DHT22;10373;49.768;18.302;2022-09-09T06:51:18;18.30;99.90
20428;DHT22;10373;49.768;18.302;2022-09-09T06:53:45;18.10;99.90
20428;DHT22;10373;49.768;18.302;2022-09-09T06:56:17;18.10;99.90
20428;DHT22;10373;49.768;18.302;2022-09-09T06:58:43;17.90;99.90
20428;DHT22;10373;49.768;18.302;2022-09-09T07:01:12;17.80;99.90
20428;DHT22;10373;49.768;18.302;2022-09-09T07:03:39;17.90;99.90
20428;DHT22;10373;49.768;18.302;2022-09-09T07:06:06;17.90;99.90
20428;DHT22;10373;49.768;18.302;2022-09-09T07:18:54;18.30;99.90
20428;DHT22;10373;49.768;18.302;2022-09-09T07:21:24;18.40;99.90
20428;DHT22;10373;49.768;18.302;2022-09-09T07:23:52;18.50;99.90
20428;DHT22;10373;49.768;18.302;2022-09-09T07:26:20;18.70;99.90
20428;DHT22;10373;49.768;18.302;2022-09-09T07:28:46;18.90;99.90
20428;DHT22;10373;49.768;18.302;2022-09-09T07:31:24;19.10;99.90
20428;DHT22;10373;49.768;18.302;2022-09-09T07:33:50;19.30;99.90
20428;DHT22;10373;49.768;18.302;2022-09-09T07:36:25;19.50;99.90
20428;DHT22;10373;49.768;18.302;2022-09-09T07:38:53;19.50;99.90
20428;DHT22;10373;49.768;18.302;2022-09-09T07:43:52;19.90;99.90
20428;DHT22;10373;49.768;18.302;2022-09-09T07:46:20;20.00;99.90
20428;DHT22;10373;49.768;18.302;2022-09-09T07:48:51;19.90;99.90
20428;DHT22;10373;49.768;18.302;2022-09-09T07:51:20;20.00;99.90
20428;DHT22;10373;49.768;18.302;2022-09-09T07:53:48;20.10;99.90
20428;DHT22;10373;49.768;18.302;2022-09-09T07:56:17;20.10;99.90
20428;DHT22;10373;49.768;18.302;2022-09-09T07:58:46;20.20;99.90
20428;DHT22;10373;49.768;18.302;2022-09-09T08:01:18;20.40;99.90
20428;DHT22;10373;49.768;18.302;2022-09-09T08:03:45;20.40;99.90
20428;DHT22;10373;49.768;18.302;2022-09-09T08:06:11;20.40;99.90
20428;DHT22;10373;49.768;18.302;2022-09-09T08:08:38;20.50;99.90
20428;DHT22;10373;49.768;18.302;2022-09-09T08:13:38;20.60;99.90
20428;DHT22;10373;49.768;18.302;2022-09-09T08:16:09;20.60;99.90
20428;DHT22;10373;49.768;18.302;2022-09-09T08:18:35;20.70;99.90
20428;DHT22;10373;49.768;18.302;2022-09-09T08:21:08;20.90;99.90
20428;DHT22;10373;49.768;18.302;2022-09-09T08:23:40;20.90;99.90
20428;DHT22;10373;49.768;18.302;2022-09-09T08:26:13;20.80;99.90
20428;DHT22;10373;49.768;18.302;2022-09-09T08:28:39;20.80;99.90
20428;DHT22;10373;49.768;18.302;2022-09-09T08:31:12;20.90;99.90
20428;DHT22;10373;49.768;18.302;2022-09-09T08:33:40;20.90;99.90
20428;DHT22;10373;49.768;18.302;2022-09-09T08:36:08;21.10;99.90
20428;DHT22;10373;49.768;18.302;2022-09-09T08:38:35;21.10;99.90
20428;DHT22;10373;49.768;18.302;2022-09-09T08:41:19;21.20;99.90
20428;DHT22;10373;49.768;18.302;2022-09-09T08:43:51;21.30;99.90
20428;DHT22;10373;49.768;18.302;2022-09-09T08:46:27;21.40;99.90
20428;DHT22;10373;49.768;18.302;2022-09-09T08:51:42;21.60;99.90
20428;DHT22;10373;49.768;18.302;2022-09-09T08:54:08;21.80;99.90
20428;DHT22;10373;49.768;18.302;2022-09-09T08:56:36;21.90;99.90
20428;DHT22;10373;49.768;18.302;2022-09-09T08:59:02;22.00;99.90
20428;DHT22;10373;49.768;18.302;2022-09-09T09:12:15;22.20;99.90
20428;DHT22;10373;49.768;18.302;2022-09-09T09:14:43;22.40;98.80
20428;DHT22;10373;49.768;18.302;2022-09-09T09:17:17;22.40;97.90
20428;DHT22;10373;49.768;18.302;2022-09-09T09:19:45;22.40;97.10
20428;DHT22;10373;49.768;18.302;2022-09-09T09:30:00;22.40;95.20
20428;DHT22;10373;49.768;18.302;2022-09-09T09:32:30;22.50;96.10
20428;DHT22;10373;49.768;18.302;2022-09-09T09:34:57;22.60;98.50
20428;DHT22;10373;49.768;18.302;2022-09-09T09:37:29;22.70;97.10
20428;DHT22;10373;49.768;18.302;2022-09-09T09:39:55;22.70;97.30
20428;DHT22;10373;49.768;18.302;2022-09-09T09:42:21;22.70;96.50
20428;DHT22;10373;49.768;18.302;2022-09-09T09:44:47;22.80;94.70
20428;DHT22;10373;49.768;18.302;2022-09-09T09:47:19;23.10;91.90
20428;DHT22;10373;49.768;18.302;2022-09-09T09:49:56;23.10;91.10
20428;DHT22;10373;49.768;18.302;2022-09-09T09:52:27;23.20;91.00
20428;DHT22;10373;49.768;18.302;2022-09-09T09:54:54;23.30;89.00
20428;DHT22;10373;49.768;18.302;2022-09-09T09:57:29;23.00;86.20
20428;DHT22;10373;49.768;18.302;2022-09-09T10:00:16;22.90;87.10
20428;DHT22;10373;49.768;18.302;2022-09-09T10:02:44;23.00;85.70
20428;DHT22;10373;49.768;18.302;2022-09-09T10:07:39;23.30;85.00
20428;DHT22;10373;49.768;18.302;2022-09-09T10:10:08;23.30;85.10
20428;DHT22;10373;49.768;18.302;2022-09-09T10:19:03;23.70;80.20
20428;DHT22;10373;49.768;18.302;2022-09-09T10:35:47;24.90;72.70
20428;DHT22;10373;49.768;18.302;2022-09-09T10:57:13;25.40;67.30
20428;DHT22;10373;49.768;18.302;2022-09-09T10:59:47;25.80;66.90
20428;DHT22;10373;49.768;18.302;2022-09-09T11:02:28;25.80;64.30
20428;DHT22;10373;49.768;18.302;2022-09-09T11:07:47;25.70;61.80
20428;DHT22;10373;49.768;18.302;2022-09-09T11:13:03;25.70;61.10
20428;DHT22;10373;49.768;18.302;2022-09-09T11:15:36;25.60;61.70
20428;DHT22;10373;49.768;18.302;2022-09-09T11:18:08;25.10;63.90
20428;DHT22;10373;49.768;18.302;2022-09-09T11:20:35;25.00;65.00
20428;DHT22;10373;49.768;18.302;2022-09-09T11:23:06;24.60;63.30
20428;DHT22;10373;49.768;18.302;2022-09-09T11:25:44;24.60;61.90
20428;DHT22;10373;49.768;18.302;2022-09-09T11:33:34;24.80;61.80
20428;DHT22;10373;49.768;18.302;2022-09-09T11:38:51;25.00;60.50
20428;DHT22;10373;49.768;18.302;2022-09-09T11:41:19;24.70;63.20
20428;DHT22;10373;49.768;18.302;2022-09-09T11:43:51;24.70;64.80
20428;DHT22;10373;49.768;18.302;2022-09-09T11:46:20;25.10;59.70
20428;DHT22;10373;49.768;18.302;2022-09-09T11:49:01;25.80;59.40
20428;DHT22;10373;49.768;18.302;2022-09-09T11:51:29;26.40;58.90
20428;DHT22;10373;49.768;18.302;2022-09-09T11:54:03;26.60;58.00
20428;DHT22;10373;49.768;18.302;2022-09-09T11:56:48;26.60;57.80
20428;DHT22;10373;49.768;18.302;2022-09-09T11:59:32;26.70;57.40
20428;DHT22;10373;49.768;18.302;2022-09-09T12:02:10;26.70;57.10
20428;DHT22;10373;49.768;18.302;2022-09-09T12:04:40;26.80;57.60
20428;DHT22;10373;49.768;18.302;2022-09-09T12:09:50;26.80;56.80
20428;DHT22;10373;49.768;18.302;2022-09-09T12:12:31;27.00;56.10
20428;DHT22;10373;49.768;18.302;2022-09-09T12:17:42;27.40;56.40
20428;DHT22;10373;49.768;18.302;2022-09-09T12:26:07;27.50;53.50
20428;DHT22;10373;49.768;18.302;2022-09-09T12:31:37;27.00;55.50
20428;DHT22;10373;49.768;18.302;2022-09-09T12:34:18;26.60;56.70
20428;DHT22;10373;49.768;18.302;2022-09-09T12:36:51;26.40;56.40
20428;DHT22;10373;49.768;18.302;2022-09-09T12:39:36;25.90;55.70
20428;DHT22;10373;49.768;18.302;2022-09-09T12:42:03;25.80;53.90
20428;DHT22;10373;49.768;18.302;2022-09-09T12:44:29;26.10;55.30
20428;DHT22;10373;49.768;18.302;2022-09-09T12:46:57;26.70;56.30
20428;DHT22;10373;49.768;18.302;2022-09-09T12:49:28;27.30;54.10
20428;DHT22;10373;49.768;18.302;2022-09-09T12:51:56;28.00;53.50
20428;DHT22;10373;49.768;18.302;2022-09-09T12:54:23;28.70;52.30
20428;DHT22;10373;49.768;18.302;2022-09-09T12:56:49;28.90;51.80
20428;DHT22;10373;49.768;18.302;2022-09-09T12:59:27;28.50;51.00
20428;DHT22;10373;49.768;18.302;2022-09-09T13:02:00;28.40;50.30
20428;DHT22;10373;49.768;18.302;2022-09-09T13:04:25;28.60;50.50
20428;DHT22;10373;49.768;18.302;2022-09-09T13:06:51;28.40;50.60
20428;DHT22;10373;49.768;18.302;2022-09-09T13:09:18;28.50;50.60
20428;DHT22;10373;49.768;18.302;2022-09-09T13:11:50;28.60;50.60
20428;DHT22;10373;49.768;18.302;2022-09-09T13:14:27;28.60;50.10
20428;DHT22;10373;49.768;18.302;2022-09-09T13:16:59;28.70;50.10
20428;DHT22;10373;49.768;18.302;2022-09-09T13:19:26;28.50;50.50
20428;DHT22;10373;49.768;18.302;2022-09-09T13:21:55;28.10;50.30
20428;DHT22;10373;49.768;18.302;2022-09-09T13:24:31;27.80;51.90
20428;DHT22;10373;49.768;18.302;2022-09-09T13:27:00;27.50;52.00
20428;DHT22;10373;49.768;18.302;2022-09-09T13:29:27;27.20;53.70
20428;DHT22;10373;49.768;18.302;2022-09-09T13:31:54;26.90;54.40
20428;DHT22;10373;49.768;18.302;2022-09-09T13:34:30;26.80;54.20
20428;DHT22;10373;49.768;18.302;2022-09-09T13:37:02;26.90;54.20
20428;DHT22;10373;49.768;18.302;2022-09-09T13:39:29;27.10;54.00
20428;DHT22;10373;49.768;18.302;2022-09-09T13:41:55;27.20;53.30
20428;DHT22;10373;49.768;18.302;2022-09-09T13:44:24;27.20;52.80
20428;DHT22;10373;49.768;18.302;2022-09-09T13:47:20;27.20;53.40
20428;DHT22;10373;49.768;18.302;2022-09-09T13:49:47;27.20;53.40
20428;DHT22;10373;49.768;18.302;2022-09-09T13:52:17;27.30;53.30
20428;DHT22;10373;49.768;18.302;2022-09-09T13:54:53;27.20;53.00
20428;DHT22;10373;49.768;18.302;2022-09-09T13:57:23;26.90;52.90
20428;DHT22;10373;49.768;18.302;2022-09-09T13:59:51;26.80;54.20
20428;DHT22;10373;49.768;18.302;2022-09-09T14:02:17;26.70;53.60
20428;DHT22;10373;49.768;18.302;2022-09-09T14:04:43;26.50;53.50
20428;DHT22;10373;49.768;18.302;2022-09-09T14:07:14;26.30;53.80
20428;DHT22;10373;49.768;18.302;2022-09-09T14:09:41;25.90;53.90
20428;DHT22;10373;49.768;18.302;2022-09-09T14:12:11;25.60;54.50
20428;DHT22;10373;49.768;18.302;2022-09-09T14:14:37;25.30;55.90
20428;DHT22;10373;49.768;18.302;2022-09-09T14:17:03;25.20;57.00
20428;DHT22;10373;49.768;18.302;2022-09-09T14:19:29;25.00;56.40
20428;DHT22;10373;49.768;18.302;2022-09-09T14:21:57;25.00;58.10
20428;DHT22;10373;49.768;18.302;2022-09-09T14:24:22;25.10;58.50
20428;DHT22;10373;49.768;18.302;2022-09-09T14:26:48;25.20;58.20
20428;DHT22;10373;49.768;18.302;2022-09-09T14:29:14;25.20;56.30
20428;DHT22;10373;49.768;18.302;2022-09-09T14:31:39;25.20;56.80
20428;DHT22;10373;49.768;18.302;2022-09-09T14:34:05;24.90;57.80
20428;DHT22;10373;49.768;18.302;2022-09-09T14:36:31;24.80;57.30
20428;DHT22;10373;49.768;18.302;2022-09-09T14:38:57;24.70;57.20
20428;DHT22;10373;49.768;18.302;2022-09-09T14:41:23;24.40;57.40
20428;DHT22;10373;49.768;18.302;2022-09-09T14:43:50;24.40;59.20
20428;DHT22;10373;49.768;18.302;2022-09-09T14:46:18;24.50;61.60
20428;DHT22;10373;49.768;18.302;2022-09-09T14:48:44;24.40;62.30
20428;DHT22;10373;49.768;18.302;2022-09-09T14:51:11;24.10;63.60
20428;DHT22;10373;49.768;18.302;2022-09-09T14:53:38;23.80;61.30
20428;DHT22;10373;49.768;18.302;2022-09-09T14:56:12;23.80;62.10
20428;DHT22;10373;49.768;18.302;2022-09-09T14:58:38;23.90;63.80
20428;DHT22;10373;49.768;18.302;2022-09-09T15:01:10;23.80;61.80
20428;DHT22;10373;49.768;18.302;2022-09-09T15:03:36;23.90;60.80
20428;DHT22;10373;49.768;18.302;2022-09-09T15:06:11;23.80;61.20
20428;DHT22;10373;49.768;18.302;2022-09-09T15:08:37;23.60;62.70
20428;DHT22;10373;49.768;18.302;2022-09-09T15:11:04;23.50;64.20
20428;DHT22;10373;49.768;18.302;2022-09-09T15:13:32;23.50;64.80
20428;DHT22;10373;49.768;18.302;2022-09-09T15:16:04;23.50;65.70
20428;DHT22;10373;49.768;18.302;2022-09-09T15:18:30;23.70;70.00
20428;DHT22;10373;49.768;18.302;2022-09-09T15:20:56;23.70;68.10
20428;DHT22;10373;49.768;18.302;2022-09-09T15:23:21;23.60;69.50
20428;DHT22;10373;49.768;18.302;2022-09-09T15:25:54;23.60;72.50
20428;DHT22;10373;49.768;18.302;2022-09-09T15:28:21;23.60;73.20
20428;DHT22;10373;49.768;18.302;2022-09-09T15:30:49;23.50;69.60
20428;DHT22;10373;49.768;18.302;2022-09-09T15:33:15;23.30;71.60
20428;DHT22;10373;49.768;18.302;2022-09-09T15:35:41;23.30;78.70
20428;DHT22;10373;49.768;18.302;2022-09-09T15:38:07;23.30;82.50
20428;DHT22;10373;49.768;18.302;2022-09-09T15:40:32;23.40;85.10
20428;DHT22;10373;49.768;18.302;2022-09-09T15:42:58;23.30;84.10
20428;DHT22;10373;49.768;18.302;2022-09-09T15:45:24;23.30;85.70
20428;DHT22;10373;49.768;18.302;2022-09-09T15:47:50;23.30;90.10
20428;DHT22;10373;49.768;18.302;2022-09-09T15:50:15;23.30;91.70
20428;DHT22;10373;49.768;18.302;2022-09-09T15:52:41;23.20;91.80
20428;DHT22;10373;49.768;18.302;2022-09-09T15:55:07;23.20;92.50
20428;DHT22;10373;49.768;18.302;2022-09-09T15:57:34;23.20;94.50
20428;DHT22;10373;49.768;18.302;2022-09-09T16:00:00;23.10;93.50
20428;DHT22;10373;49.768;18.302;2022-09-09T16:02:26;22.90;99.90
20428;DHT22;10373;49.768;18.302;2022-09-09T16:04:52;22.60;99.90
20428;DHT22;10373;49.768;18.302;2022-09-09T16:07:18;22.50;99.90
20428;DHT22;10373;49.768;18.302;2022-09-09T16:09:43;22.50;99.90
20428;DHT22;10373;49.768;18.302;2022-09-09T16:12:09;22.50;99.90
20428;DHT22;10373;49.768;18.302;2022-09-09T16:14:37;22.50;99.90
20428;DHT22;10373;49.768;18.302;2022-09-09T16:17:05;22.50;99.90
20428;DHT22;10373;49.768;18.302;2022-09-09T16:19:32;22.50;99.90
20428;DHT22;10373;49.768;18.302;2022-09-09T16:21:58;22.40;99.90
20428;DHT22;10373;49.768;18.302;2022-09-09T16:24:23;22.40;97.90
20428;DHT22;10373;49.768;18.302;2022-09-09T16:26:53;22.30;99.50
20428;DHT22;10373;49.768;18.302;2022-09-09T16:29:20;22.20;99.90
20428;DHT22;10373;49.768;18.302;2022-09-09T16:31:53;22.20;99.90
20428;DHT22;10373;49.768;18.302;2022-09-09T16:34:19;22.10;99.90
20428;DHT22;10373;49.768;18.302;2022-09-09T16:36:45;22.00;99.90
20428;DHT22;10373;49.768;18.302;2022-09-09T16:39:16;22.00;99.90
20428;DHT22;10373;49.768;18.302;2022-09-09T16:41:43;21.90;99.90
20428;DHT22;10373;49.768;18.302;2022-09-09T16:44:11;21.90;99.90
20428;DHT22;10373;49.768;18.302;2022-09-09T16:46:40;21.70;99.90
20428;DHT22;10373;49.768;18.302;2022-09-09T16:49:12;21.70;99.90
20428;DHT22;10373;49.768;18.302;2022-09-09T16:51:41;21.50;99.90
20428;DHT22;10373;49.768;18.302;2022-09-09T16:54:08;21.40;99.90
20428;DHT22;10373;49.768;18.302;2022-09-09T16:56:37;21.30;99.90
20428;DHT22;10373;49.768;18.302;2022-09-09T16:59:05;21.20;99.90
20428;DHT22;10373;49.768;18.302;2022-09-09T17:01:34;21.10;99.90
20428;DHT22;10373;49.768;18.302;2022-09-09T17:04:04;21.10;99.90
20428;DHT22;10373;49.768;18.302;2022-09-09T17:06:31;21.10;99.90
20428;DHT22;10373;49.768;18.302;2022-09-09T17:09:02;21.00;99.90
20428;DHT22;10373;49.768;18.302;2022-09-09T17:11:28;20.90;99.90
20428;DHT22;10373;49.768;18.302;2022-09-09T17:13:55;20.80;99.90
20428;DHT22;10373;49.768;18.302;2022-09-09T17:16:23;20.70;99.90
20428;DHT22;10373;49.768;18.302;2022-09-09T17:18:50;20.60;99.90
20428;DHT22;10373;49.768;18.302;2022-09-09T17:21:18;20.50;99.90
20428;DHT22;10373;49.768;18.302;2022-09-09T17:23:45;20.50;99.90
20428;DHT22;10373;49.768;18.302;2022-09-09T17:26:17;20.40;99.90
20428;DHT22;10373;49.768;18.302;2022-09-09T17:28:43;20.30;99.90
20428;DHT22;10373;49.768;18.302;2022-09-09T17:31:12;20.30;99.90
20428;DHT22;10373;49.768;18.302;2022-09-09T17:33:40;20.30;99.90
20428;DHT22;10373;49.768;18.302;2022-09-09T17:36:16;20.20;99.90
20428;DHT22;10373;49.768;18.302;2022-09-09T17:38:43;20.20;99.90
20428;DHT22;10373;49.768;18.302;2022-09-09T17:41:25;20.20;99.90
20428;DHT22;10373;49.768;18.302;2022-09-09T17:43:51;20.10;99.90
20428;DHT22;10373;49.768;18.302;2022-09-09T17:46:22;20.10;99.90
20428;DHT22;10373;49.768;18.302;2022-09-09T17:48:50;20.00;99.90
20428;DHT22;10373;49.768;18.302;2022-09-09T17:51:20;19.90;99.90
20428;DHT22;10373;49.768;18.302;2022-09-09T17:53:50;19.90;99.90
20428;DHT22;10373;49.768;18.302;2022-09-09T17:56:18;19.80;99.90
20428;DHT22;10373;49.768;18.302;2022-09-09T17:58:46;19.80;99.90
20428;DHT22;10373;49.768;18.302;2022-09-09T18:01:15;19.70;99.90
20428;DHT22;10373;49.768;18.302;2022-09-09T18:03:42;19.70;99.90
20428;DHT22;10373;49.768;18.302;2022-09-09T18:06:11;19.60;99.90
20428;DHT22;10373;49.768;18.302;2022-09-09T18:08:44;19.60;99.90
20428;DHT22;10373;49.768;18.302;2022-09-09T18:11:11;19.60;99.90
20428;DHT22;10373;49.768;18.302;2022-09-09T18:13:37;19.60;99.90
20428;DHT22;10373;49.768;18.302;2022-09-09T18:16:06;19.60;99.90
20428;DHT22;10373;49.768;18.302;2022-09-09T18:18:33;19.50;99.90
20428;DHT22;10373;49.768;18.302;2022-09-09T18:21:04;19.40;99.90